createdAt,value
2023-02-24T00:02:28.030Z,94932.06
2023-02-24T00:05:34.570Z,94929.72
2023-02-24T00:08:36.346Z,94930.66
2023-02-24T00:11:40.028Z,94923.78
2023-02-24T00:14:45.128Z,94925.75
2023-02-24T00:17:46.960Z,94926.63
2023-02-24T00:20:50.147Z,94921.53
2023-02-24T00:23:53.817Z,94919.53
2023-02-24T00:26:57.523Z,94923.00
2023-02-24T00:30:00.098Z,94916.94
2023-02-24T00:33:01.958Z,94913.53
2023-02-24T00:36:14.428Z,94904.59
2023-02-24T00:39:16.324Z,94910.00
2023-02-24T00:42:18.346Z,94913.47
2023-02-24T00:45:20.688Z,94910.25
2023-02-24T00:48:22.664Z,94910.47
2023-02-24T00:51:26.419Z,94902.94
2023-02-24T00:54:28.444Z,94899.41
2023-02-24T00:57:30.234Z,94893.72
2023-02-24T01:00:32.878Z,94880.63
2023-02-24T01:03:35.069Z,94889.84
2023-02-24T01:06:41.841Z,94882.63
2023-02-24T01:09:43.661Z,94882.56
2023-02-24T01:12:45.727Z,94883.66
2023-02-24T01:15:47.651Z,94882.09
2023-02-24T01:18:49.599Z,94877.56
2023-02-24T01:21:53.356Z,94879.78
2023-02-24T01:24:55.096Z,94875.63
2023-02-24T01:27:56.889Z,94867.25
2023-02-24T01:31:02.317Z,94866.53
2023-02-24T01:34:04.150Z,94855.81
2023-02-24T01:37:08.182Z,94860.41
2023-02-24T01:40:12.963Z,94856.28
2023-02-24T01:43:14.760Z,94855.53
2023-02-24T01:46:16.638Z,94852.38
2023-02-24T01:49:22.700Z,94843.91
2023-02-24T01:52:30.772Z,94847.47
2023-02-24T01:55:36.188Z,94838.69
2023-02-24T01:58:38.347Z,94840.94
2023-02-24T02:01:43.305Z,94848.19
2023-02-24T02:04:51.065Z,94831.38
2023-02-24T02:07:55.878Z,94835.63
2023-02-24T02:11:03.756Z,94837.56
2023-02-24T02:14:06.241Z,94836.31
2023-02-24T02:17:16.401Z,94830.44
2023-02-24T02:21:04.517Z,94836.47
2023-02-24T02:24:26.490Z,94830.75
2023-02-24T02:27:57.005Z,94827.66
2023-02-24T02:31:27.431Z,94815.44
2023-02-24T02:34:47.916Z,94821.25
2023-02-24T02:37:55.281Z,94814.00
2023-02-24T02:41:09.265Z,94818.13
2023-02-24T02:44:19.123Z,94810.81
2023-02-24T02:47:26.818Z,94817.06
2023-02-24T02:50:35.212Z,94804.47
2023-02-24T02:53:43.497Z,94803.97
2023-02-24T02:56:49.718Z,94808.25
2023-02-24T02:59:55.859Z,94814.72
2023-02-24T03:03:05.490Z,94804.47
2023-02-24T03:06:14.597Z,94796.88
2023-02-24T03:09:19.230Z,94799.59
2023-02-24T03:12:24.773Z,94800.50
2023-02-24T03:15:30.988Z,94800.94
2023-02-24T03:18:38.952Z,94805.88
2023-02-24T03:21:48.588Z,94794.31
2023-02-24T03:24:50.905Z,94792.66
2023-02-24T03:27:59.152Z,94791.72
2023-02-24T03:31:06.209Z,94780.97
2023-02-24T03:34:13.416Z,94781.28
2023-02-24T03:37:18.281Z,94792.47
2023-02-24T03:40:20.091Z,94788.69
2023-02-24T03:43:28.550Z,94793.28
2023-02-24T03:46:31.803Z,94786.94
2023-02-24T03:49:33.551Z,94784.66
2023-02-24T03:52:43.154Z,94783.56
2023-02-24T03:55:58.494Z,94782.91
2023-02-24T03:59:16.328Z,94778.38
2023-02-24T04:02:22.252Z,94767.34
2023-02-24T04:05:28.756Z,94770.38
2023-02-24T04:08:41.352Z,94772.25
2023-02-24T04:11:47.828Z,94777.75
2023-02-24T04:14:55.914Z,94774.47
2023-02-24T04:18:00.383Z,94762.91
2023-02-24T04:21:05.138Z,94767.13
2023-02-24T04:24:11.078Z,94765.59
2023-02-24T04:27:15.391Z,94758.44
2023-02-24T04:30:18.120Z,94760.25
2023-02-24T04:33:20.005Z,94742.78
2023-02-24T04:36:22.578Z,94744.97
2023-02-24T04:39:26.210Z,94749.94
2023-02-24T04:42:29.106Z,94736.97
2023-02-24T04:45:32.452Z,94726.63
2023-02-24T04:48:34.829Z,94731.25
2023-02-24T04:51:37.048Z,94726.72
2023-02-24T04:54:43.651Z,94719.03
2023-02-24T04:57:45.635Z,94714.56
2023-02-24T05:00:49.752Z,94712.13
2023-02-24T05:03:51.563Z,94712.09
2023-02-24T05:06:53.669Z,94709.00
2023-02-24T05:09:57.196Z,94705.97
2023-02-24T05:13:00.796Z,94708.69
2023-02-24T05:16:07.215Z,94704.06
2023-02-24T05:19:09.826Z,94695.97
2023-02-24T05:22:11.643Z,94693.72
2023-02-24T05:25:16.477Z,94688.81
2023-02-24T05:28:20.123Z,94685.69
2023-02-24T05:31:24.834Z,94678.38
2023-02-24T05:34:28.496Z,94675.38
2023-02-24T05:37:32.060Z,94662.69
2023-02-24T05:40:35.458Z,94674.56
2023-02-24T05:43:37.733Z,94665.81
2023-02-24T05:46:41.992Z,94667.38
2023-02-24T05:49:44.206Z,94665.38
2023-02-24T05:52:47.145Z,94663.44
2023-02-24T05:55:50.299Z,94667.25
2023-02-24T05:58:54.482Z,94669.50
2023-02-24T06:01:58.608Z,94662.91
2023-02-24T06:05:01.022Z,94669.44
2023-02-24T06:08:05.414Z,94668.69
2023-02-24T06:11:09.197Z,94674.75
2023-02-24T06:14:12.558Z,94671.53
2023-02-24T06:17:16.242Z,94669.91
2023-02-24T06:20:18.159Z,94667.72
2023-02-24T06:23:19.963Z,94668.44
2023-02-24T06:26:25.339Z,94672.72
2023-02-24T06:29:27.184Z,94667.31
2023-02-24T06:32:29.160Z,94679.97
2023-02-24T06:35:31.014Z,94680.56
2023-02-24T06:38:33.908Z,94676.56
2023-02-24T06:41:38.268Z,94681.25
2023-02-24T06:44:41.171Z,94669.72
2023-02-24T06:47:43.600Z,94672.31
2023-02-24T06:50:45.370Z,94675.03
2023-02-24T06:53:47.134Z,94665.91
2023-02-24T06:56:52.245Z,94657.56
2023-02-24T06:59:55.517Z,94665.19
2023-02-24T07:02:57.512Z,94660.25
2023-02-24T07:06:02.937Z,94665.31
2023-02-24T07:09:07.629Z,94658.78
2023-02-24T07:12:10.904Z,94655.81
2023-02-24T07:15:15.045Z,94656.97
2023-02-24T07:18:17.283Z,94654.34
2023-02-24T07:21:20.311Z,94644.88
2023-02-24T07:24:22.949Z,94644.88
2023-02-24T07:27:26.496Z,94641.53
2023-02-24T07:30:29.471Z,94641.97
2023-02-24T07:33:31.378Z,94637.03
2023-02-24T07:36:33.657Z,94645.50
2023-02-24T07:39:36.485Z,94642.91
2023-02-24T07:42:41.165Z,94642.22
2023-02-24T07:45:42.967Z,94635.31
2023-02-24T07:48:45.518Z,94636.84
2023-02-24T07:51:48.238Z,94633.09
2023-02-24T07:54:55.417Z,94634.75
2023-02-24T07:57:58.618Z,94628.66
2023-02-24T08:01:01.779Z,94622.94
2023-02-24T08:04:06.528Z,94630.97
2023-02-24T08:07:08.278Z,94618.75
2023-02-24T08:10:11.022Z,94617.22
2023-02-24T08:13:14.159Z,94608.44
2023-02-24T08:16:16.440Z,94614.97
2023-02-24T08:19:20.080Z,94613.03
2023-02-24T08:22:21.883Z,94600.81
2023-02-24T08:25:25.267Z,94599.31
2023-02-24T08:28:28.653Z,94603.56
2023-02-24T08:31:31.615Z,94594.41
2023-02-24T08:34:35.830Z,94591.75
2023-02-24T08:37:37.875Z,94589.13
2023-02-24T08:40:44.473Z,94590.28
2023-02-24T08:43:48.793Z,94583.81
2023-02-24T08:46:51.497Z,94579.22
2023-02-24T08:49:53.361Z,94583.88
2023-02-24T08:52:55.741Z,94575.47
2023-02-24T08:55:59.690Z,94577.03
2023-02-24T08:59:06.610Z,94578.19
2023-02-24T09:02:13.737Z,94564.06
2023-02-24T09:05:15.850Z,94570.59
2023-02-24T09:08:19.453Z,94556.03
2023-02-24T09:11:21.882Z,94562.59
2023-02-24T09:14:28.920Z,94565.69
2023-02-24T09:17:32.199Z,94555.34
2023-02-24T09:20:36.920Z,94557.63
2023-02-24T09:23:38.942Z,94560.72
2023-02-24T09:26:43.423Z,94562.25
2023-02-24T09:29:48.510Z,94564.22
2023-02-24T09:32:50.540Z,94566.50
2023-02-24T09:35:55.543Z,94563.44
2023-02-24T09:38:59.483Z,94559.19
2023-02-24T09:42:01.795Z,94554.19
2023-02-24T09:45:11.970Z,94558.41
2023-02-24T09:48:21.047Z,94551.88
2023-02-24T09:51:23.505Z,94551.47
2023-02-24T09:54:31.291Z,94537.22
2023-02-24T09:57:41.713Z,94541.03
2023-02-24T10:00:53.888Z,94538.34
2023-02-24T10:04:01.033Z,94537.91
2023-02-24T10:07:11.052Z,94539.88
2023-02-24T10:10:18.374Z,94535.22
2023-02-24T10:13:23.662Z,94524.81
2023-02-24T10:16:28.512Z,94523.28
2023-02-24T10:19:32.350Z,94527.84
2023-02-24T10:22:46.397Z,94529.34
2023-02-24T10:25:53.368Z,94522.09
2023-02-24T10:29:03.922Z,94512.81
2023-02-24T10:32:19.752Z,94508.56
2023-02-24T10:35:23.214Z,94508.16
2023-02-24T10:38:25.226Z,94499.59
2023-02-24T10:41:28.236Z,94498.88
2023-02-24T10:44:30.475Z,94487.66
2023-02-24T10:47:37.402Z,94483.44
2023-02-24T10:50:54.974Z,94474.53
2023-02-24T10:54:08.167Z,94467.69
2023-02-24T10:57:13.052Z,94464.94
2023-02-24T11:00:19.418Z,94463.72
2023-02-24T11:03:32.978Z,94453.69
2023-02-24T11:06:35.960Z,94451.00
2023-02-24T11:09:39.667Z,94447.88
2023-02-24T11:12:45.819Z,94444.00
2023-02-24T11:15:50.684Z,94441.31
2023-02-24T11:18:55.244Z,94439.03
2023-02-24T11:21:58.067Z,94432.88
2023-02-24T11:25:05.458Z,94432.03
2023-02-24T11:28:22.312Z,94426.63
2023-02-24T11:31:39.607Z,94417.03
2023-02-24T11:34:49.605Z,94414.34
2023-02-24T11:38:04.402Z,94412.84
2023-02-24T11:41:17.525Z,94407.47
2023-02-24T11:44:25.073Z,94394.78
2023-02-24T11:47:33.314Z,94392.72
2023-02-24T11:50:44.813Z,94395.78
2023-02-24T11:53:52.064Z,94382.72
2023-02-24T11:56:57.523Z,94367.34
2023-02-24T12:00:05.391Z,94377.03
2023-02-24T12:03:14.229Z,94365.00
2023-02-24T12:06:23.410Z,94353.56
2023-02-24T12:09:31.164Z,94341.22
2023-02-24T12:12:39.615Z,94344.22
2023-02-24T12:15:48.387Z,94341.84
2023-02-24T12:18:58.235Z,94344.97
2023-02-24T12:22:05.620Z,94337.28
2023-02-24T12:25:11.730Z,94336.22
2023-02-24T12:28:24.141Z,94335.00
2023-02-24T12:31:34.703Z,94323.72
2023-02-24T12:34:48.421Z,94322.59
2023-02-24T12:38:04.444Z,94314.06
2023-02-24T12:41:25.202Z,94312.53
2023-02-24T12:44:35.794Z,94299.31
2023-02-24T12:47:52.595Z,94306.25
2023-02-24T12:51:01.524Z,94297.75
2023-02-24T12:54:09.336Z,94291.09
2023-02-24T12:57:20.170Z,94289.56
2023-02-24T13:00:31.572Z,94289.19
2023-02-24T13:03:50.715Z,94282.16
2023-02-24T13:07:01.909Z,94280.56
2023-02-24T13:10:18.012Z,94265.25
2023-02-24T13:13:27.965Z,94268.13
2023-02-24T13:16:34.640Z,94269.63
2023-02-24T13:19:37.986Z,94248.75
2023-02-24T13:22:42.367Z,94259.22
2023-02-24T13:25:53.009Z,94242.34
2023-02-24T13:29:03.765Z,94235.03
2023-02-24T13:32:05.773Z,94228.38
2023-02-24T13:35:33.359Z,94230.31
2023-02-24T13:38:40.504Z,94225.72
2023-02-24T13:41:43.780Z,94225.25
2023-02-24T13:44:49.607Z,94222.19
2023-02-24T13:48:30.438Z,94210.72
2023-02-24T13:52:05.377Z,94203.44
2023-02-24T13:55:36.288Z,94196.00
2023-02-24T13:59:03.123Z,94214.22
2023-02-24T14:02:14.539Z,94205.28
2023-02-24T14:05:25.323Z,94206.91
2023-02-24T14:08:39.024Z,94198.41
2023-02-24T14:11:42.074Z,94189.25
2023-02-24T14:14:46.518Z,94179.16
2023-02-24T14:17:55.797Z,94185.28
2023-02-24T14:20:59.148Z,94177.94
2023-02-24T14:24:07.270Z,94180.63
2023-02-24T14:27:24.371Z,94169.50
2023-02-24T14:30:34.432Z,94166.41
2023-02-24T14:33:38.981Z,94163.69
2023-02-24T14:36:45.571Z,94159.13
2023-02-24T14:39:52.069Z,94169.75
2023-02-24T14:42:56.062Z,94164.88
2023-02-24T14:46:06.148Z,94168.06
2023-02-24T14:49:18.685Z,94161.88
2023-02-24T14:52:27.525Z,94145.75
2023-02-24T14:55:32.892Z,94139.25
2023-02-24T14:58:42.571Z,94135.31
2023-02-24T15:01:48.469Z,94131.84
2023-02-24T15:04:55.653Z,94132.25
2023-02-24T15:08:02.015Z,94135.81
2023-02-24T15:11:11.260Z,94124.66
2023-02-24T15:14:21.255Z,94128.19
2023-02-24T15:17:28.075Z,94129.56
2023-02-24T15:20:33.280Z,94132.00
2023-02-24T15:23:38.394Z,94121.16
2023-02-24T15:26:40.212Z,94118.94
2023-02-24T15:29:44.090Z,94116.63
2023-02-24T15:32:47.759Z,94116.25
2023-02-24T15:35:55.552Z,94124.84
2023-02-24T15:39:01.523Z,94122.38
2023-02-24T15:42:17.428Z,94121.00
2023-02-24T15:45:30.897Z,94110.69
2023-02-24T15:48:43.636Z,94099.94
2023-02-24T15:51:48.261Z,94091.06
2023-02-24T15:54:51.450Z,94084.13
2023-02-24T15:58:01.001Z,94078.56
2023-02-24T16:01:04.187Z,94071.72
2023-02-24T16:04:11.073Z,94064.03
2023-02-24T16:07:18.277Z,94054.81
2023-02-24T16:10:23.455Z,94063.38
2023-02-24T16:13:28.566Z,94064.91
2023-02-24T16:16:32.636Z,94063.47
2023-02-24T16:19:35.972Z,94049.59
2023-02-24T16:22:39.253Z,94055.41
2023-02-24T16:25:43.329Z,94053.13
2023-02-24T16:28:50.737Z,94046.28
2023-02-24T16:31:54.159Z,94055.13
2023-02-24T16:34:59.247Z,94056.00
2023-02-24T16:38:01.717Z,94057.53
2023-02-24T16:41:04.437Z,94070.56
2023-02-24T16:44:06.753Z,94053.66
2023-02-24T16:47:15.614Z,94034.38
2023-02-24T16:50:22.404Z,94025.94
2023-02-24T16:53:25.644Z,94032.06
2023-02-24T16:56:29.753Z,94039.41
2023-02-24T16:59:32.911Z,94050.63
2023-02-24T17:02:37.678Z,94052.19
2023-02-24T17:05:47.616Z,94049.84
2023-02-24T17:08:50.141Z,94052.28
2023-02-24T17:11:55.193Z,94058.13
2023-02-24T17:14:58.345Z,94052.75
2023-02-24T17:18:00.852Z,94052.78
2023-02-24T17:21:06.207Z,94055.06
2023-02-24T17:24:13.824Z,94050.47
2023-02-24T17:27:18.231Z,94052.09
2023-02-24T17:30:23.775Z,94052.16
2023-02-24T17:33:26.314Z,94043.22
2023-02-24T17:36:39.082Z,94040.34
2023-02-24T17:39:41.344Z,94025.03
2023-02-24T17:42:44.461Z,94013.56
2023-02-24T17:45:49.121Z,94018.88
2023-02-24T17:48:51.648Z,94013.59
2023-02-24T17:51:55.034Z,94014.06
2023-02-24T17:54:57.540Z,94005.31
2023-02-24T17:58:00.409Z,94006.19
2023-02-24T18:01:05.172Z,94019.25
2023-02-24T18:04:08.280Z,94005.31
2023-02-24T18:07:13.396Z,94015.66
2023-02-24T18:10:16.074Z,94020.38
2023-02-24T18:13:19.877Z,94021.50
2023-02-24T18:16:23.463Z,94019.97
2023-02-24T18:19:27.347Z,94016.44
2023-02-24T18:22:34.053Z,94006.53
2023-02-24T18:25:39.470Z,94004.19
2023-02-24T18:28:42.873Z,94009.75
2023-02-24T18:31:51.817Z,94008.22
2023-02-24T18:34:55.079Z,94001.31
2023-02-24T18:37:59.551Z,94001.06
2023-02-24T18:41:04.279Z,94016.06
2023-02-24T18:44:10.063Z,94005.88
2023-02-24T18:47:14.335Z,94012.03
2023-02-24T18:50:16.538Z,94003.91
2023-02-24T18:53:21.848Z,94014.72
2023-02-24T18:56:26.781Z,94031.69
2023-02-24T18:59:30.706Z,94007.94
2023-02-24T19:02:33.325Z,93994.91
2023-02-24T19:05:39.113Z,93985.34
2023-02-24T19:08:43.469Z,93985.38
2023-02-24T19:11:47.655Z,93982.00
2023-02-24T19:14:53.768Z,93970.16
2023-02-24T19:17:58.274Z,93958.97
2023-02-24T19:21:01.522Z,93940.16
2023-02-24T19:24:08.944Z,93941.69
2023-02-24T19:27:11.884Z,93949.34
2023-02-24T19:30:16.581Z,93930.91
2023-02-24T19:33:20.682Z,93924.72
2023-02-24T19:36:24.922Z,93914.72
2023-02-24T19:39:29.963Z,93910.03
2023-02-24T19:42:33.676Z,93915.03
2023-02-24T19:45:41.070Z,93893.47
2023-02-24T19:48:45.365Z,93881.28
2023-02-24T19:51:48.429Z,93897.06
2023-02-24T19:54:56.060Z,93881.69
2023-02-24T19:57:58.805Z,93889.00
2023-02-24T20:01:07.110Z,93883.31
2023-02-24T20:04:14.535Z,93881.69
2023-02-24T20:07:17.245Z,93877.47
2023-02-24T20:10:23.214Z,93877.81
2023-02-24T20:13:26.516Z,93866.75
2023-02-24T20:16:29.297Z,93859.00
2023-02-24T20:19:34.812Z,93849.34
2023-02-24T20:22:39.902Z,93847.75
2023-02-24T20:25:52.105Z,93853.19
2023-02-24T20:28:54.807Z,93857.13
2023-02-24T20:31:57.974Z,93835.00
2023-02-24T20:35:02.566Z,93833.00
2023-02-24T20:38:06.069Z,93841.38
2023-02-24T20:41:12.389Z,93839.53
2023-02-24T20:44:17.086Z,93828.31
2023-02-24T20:47:20.882Z,93836.75
2023-02-24T20:50:24.292Z,93844.78
2023-02-24T20:53:27.203Z,93842.44
2023-02-24T20:56:35.063Z,93837.34
2023-02-24T20:59:38.176Z,93843.13
2023-02-24T21:02:40.976Z,93861.97
2023-02-24T21:05:44.719Z,93854.81
2023-02-24T21:08:47.457Z,93872.56
2023-02-24T21:11:51.174Z,93862.59
2023-02-24T21:14:55.976Z,93864.16
2023-02-24T21:17:59.923Z,93844.66
2023-02-24T21:21:01.977Z,93834.81
2023-02-24T21:24:05.059Z,93866.25
2023-02-24T21:27:08.970Z,93848.44
2023-02-24T21:30:13.067Z,93869.25
2023-02-24T21:33:16.459Z,93852.78
2023-02-24T21:36:20.038Z,93864.47
2023-02-24T21:39:23.346Z,93838.50
2023-02-24T21:42:27.505Z,93846.97
2023-02-24T21:45:29.981Z,93846.72
2023-02-24T21:48:33.503Z,93852.84
2023-02-24T21:51:35.678Z,93840.66
2023-02-24T21:54:37.716Z,93844.84
2023-02-24T21:57:44.709Z,93844.84
2023-02-24T22:00:47.132Z,93843.72
2023-02-24T22:03:54.964Z,93841.34
2023-02-24T22:06:56.767Z,93834.84
2023-02-24T22:09:58.540Z,93828.75
2023-02-24T22:13:03.126Z,93834.50
2023-02-24T22:16:09.750Z,93828.81
2023-02-24T22:19:12.376Z,93836.13
2023-02-24T22:22:14.381Z,93830.03
2023-02-24T22:25:16.540Z,93815.53
2023-02-24T22:28:20.031Z,93812.44
2023-02-24T22:31:27.917Z,93800.28
2023-02-24T22:34:29.783Z,93811.44
2023-02-24T22:37:31.963Z,93808.78
2023-02-24T22:40:34.120Z,93817.63
2023-02-24T22:43:38.949Z,93828.31
2023-02-24T22:46:42.229Z,93808.81
2023-02-24T22:49:45.221Z,93801.91
2023-02-24T22:52:47.155Z,93812.25
2023-02-24T22:55:49.886Z,93813.41
2023-02-24T22:58:53.539Z,93814.97
2023-02-24T23:01:56.672Z,93826.84
2023-02-24T23:04:58.530Z,93813.88
2023-02-24T23:08:00.750Z,93810.81
2023-02-24T23:11:08.096Z,93802.41
2023-02-24T23:14:14.248Z,93803.56
2023-02-24T23:17:17.384Z,93786.38
2023-02-24T23:20:22.258Z,93781.41
2023-02-24T23:23:24.111Z,93784.09
2023-02-24T23:26:29.403Z,93794.41
2023-02-24T23:29:32.857Z,93797.47
2023-02-24T23:32:35.252Z,93801.66
2023-02-24T23:35:38.495Z,93805.50
2023-02-24T23:38:40.710Z,93802.81
2023-02-24T23:41:44.043Z,93817.72
2023-02-24T23:44:47.684Z,93829.91
2023-02-24T23:47:51.454Z,93823.44
2023-02-24T23:50:53.517Z,93829.47
2023-02-24T23:53:55.339Z,93818.03
2023-02-24T23:56:57.126Z,93831.41
